Pemberton, MN (56078)

07:34 PM CDT die 22o October, anno 2014 (GMT -0500)
Blue Valley Sod | Change Station
CLOSE
Current Station
Personal Weather Stations
Location: Mapleton, MN
Elevation: 1014 ft
Nearby Weather Stations

Elev 1014 ft 43.94 °N, 93.83 °W | Updated 18 minutes ago

Plerumque Nubila
Plerumque Nubila
57.3 °F
Feels Like 57.3 °F
N
16.0
Ventus Variabilis Ventus from Magis Auster quam Eurus
Gusts 23.0 mph

Hodie
High -- | Low -- °F
--% Chance of Precip.
Yesterday
High -- | Low -- °F
Precip. -- in
7:38 AM 6:19 PM
Waning Crescent, 1% visible
Pressio 30.07 in
Visibilitas 10.0 milia passuum
Clouds Serena
Frigus in quo Ros apparet 44 °F
Umor 63%
Rainfall 0.00 in
Snow Depth Not available.
UV 0 out of 12
Pollen 1.70 out of 12
Air Quality Not available.
Flu Activity Sporadic
METAR KACQ 230014Z AUTO 14013G20KT 10SM CLR 13/03 A3007 RMK AO2

More Conditions Fewer Conditions

Pressio 30.07 in
Visibilitas 10.0 milia passuum
Clouds Serena
Frigus in quo Ros apparet 44 °F
Umor 63%
Rainfall 0.00 in
Snow Depth Not available.
UV 0 out of 12
Pollen 1.70 out of 12
Air Quality Not available.
Flu Activity Sporadic
METAR KACQ 230014Z AUTO 14013G20KT 10SM CLR 13/03 A3007 RMK AO2

More Conditions Fewer Conditions

10-Day Weather Forecast

Almanac

Astronomy

Oct. 22, 2014 Rise Set
Actual Time 7:38 AM CDT 6:19 PM CDT
Civil Twilight 7:09 AM CDT 6:49 PM CDT
Nautical Twilight 6:35 AM CDT 7:22 PM CDT
Astronomical Twilight 6:02 AM CDT 7:56 PM CDT
Moon 6:18 AM CDT (10/22) 5:48 PM CDT (10/22)
Length Of Visible Light 11h 40m
Length of Day
10h 41m
Tomorrow will be 2m 51s shorter.
Waning Crescent, 1% of the Moon is Illuminated
Hodie
Waning Crescent
Oct 23
New
Oct 30
First Quarter
Nov 6
Full
Nov 14
Last Quarter

Today's Extremes

State Highs State Lows

Community

WunderPhotos

Upload Photos

1,764,095 photos uploaded!

WunderBlogs® & News

Nearby

Snow Depth

Station Depth Elevation
No new snow has been reported.

Earthquake Activity

City Distance Mag. Time & Date
No recent earthquake activity has been reported nearby.
Minimum magnitude displayed is 2.5.

Coastal Water Temperatures

Locus Calor
No Stations Reporting

Nearby Weather Stations